Time;durP1;ratioP1;P1;durP2;ratioP2;P2;SDS_P1;SDS_P2;PMS_P1;PMS_P2;Temp;Humidity;BMP_temperature;BMP_pressure;BME280_temperature;BME280_humidity;BME280_pressure;Samples;Min_cycle;Max_cycle;Signal;HPM_P1;HPM_P2
2020/12/25 00:02:08;;;;;;;15.32;5.38;;;20.90;71.30;;;;;;5022294;28;20060;-38
2020/12/25 00:04:37;;;;;;;13.50;5.28;;;20.90;71.10;;;;;;5022430;28;20512;-41
2020/12/25 00:07:03;;;;;;;11.38;5.28;;;20.90;71.00;;;;;;5020207;28;20071;-38
2020/12/25 00:09:29;;;;;;;19.90;5.55;;;20.90;70.90;;;;;;5025512;28;20045;-40
2020/12/25 00:11:55;;;;;;;17.00;5.18;;;20.90;71.10;;;;;;5026524;28;20040;-38
2020/12/25 00:14:21;;;;;;;12.35;4.90;;;20.90;71.30;;;;;;5021970;28;20063;-37
2020/12/25 00:16:46;;;;;;;20.77;5.32;;;20.80;71.60;;;;;;5026721;28;20022;-39
2020/12/25 00:19:12;;;;;;;14.05;5.30;;;20.90;71.80;;;;;;5021688;28;20050;-38
2020/12/25 00:21:37;;;;;;;11.35;4.93;;;20.90;71.80;;;;;;5026332;28;20041;-38
2020/12/25 00:24:07;;;;;;;15.43;4.40;;;20.90;71.70;;;;;;5029750;28;20029;-39
2020/12/25 00:26:33;;;;;;;18.80;5.40;;;20.90;71.90;;;;;;5028588;28;20071;-39
2020/12/25 00:29:00;;;;;;;12.77;4.07;;;20.80;71.40;;;;;;5025938;28;20116;-38
2020/12/25 00:31:33;;;;;;;26.27;5.28;;;20.80;71.80;;;;;;5025520;28;20077;-38
2020/12/25 00:34:00;;;;;;;20.13;5.55;;;20.80;72.80;;;;;;5026893;28;20033;-39
2020/12/25 00:36:33;;;;;;;16.23;6.32;;;20.80;72.00;;;;;;5019495;28;20532;-55
2020/12/25 00:38:59;;;;;;;21.17;6.35;;;20.90;72.30;;;;;;5021329;28;20045;-43
2020/12/25 00:41:26;;;;;;;20.60;5.63;;;21.10;71.00;;;;;;5018557;28;20180;-38
2020/12/25 00:43:52;;;;;;;23.98;5.57;;;21.00;70.50;;;;;;5020022;28;20042;-39
2020/12/25 00:46:17;;;;;;;21.45;5.53;;;21.00;70.50;;;;;;5020136;28;20048;-37
2020/12/25 09:17:46;;;;;;;3.30;0.77;;;18.90;73.50;;;;;;5083664;27;20705;-38
2020/12/25 09:20:12;;;;;;;5.65;1.00;;;18.90;74.20;;;;;;5058509;28;20048;-38
2020/12/25 09:22:37;;;;;;;4.55;0.98;;;19.00;74.10;;;;;;5076569;28;20385;-38
2020/12/25 09:25:03;;;;;;;13.77;1.33;;;19.10;74.00;;;;;;5075239;28;20072;-39
2020/12/25 09:27:29;;;;;;;10.02;1.30;;;19.20;74.00;;;;;;5072321;28;20110;-38
2020/12/25 09:29:54;;;;;;;15.50;1.20;;;19.30;73.90;;;;;;5074870;28;20411;-37
2020/12/25 09:32:20;;;;;;;12.93;1.40;;;19.40;73.90;;;;;;5082024;28;20507;-38
2020/12/25 09:34:45;;;;;;;10.68;1.35;;;19.40;74.90;;;;;;5079269;28;20407;-38
2020/12/25 09:37:11;;;;;;;3.78;1.05;;;19.40;74.20;;;;;;5071786;28;20049;-38
2020/12/25 09:39:36;;;;;;;12.13;1.10;;;19.50;74.80;;;;;;5073367;28;20048;-39
2020/12/25 09:42:02;;;;;;;11.57;1.00;;;19.50;74.60;;;;;;5076928;28;20064;-38
2020/12/25 09:44:27;;;;;;;5.65;1.00;;;19.50;74.60;;;;;;5078179;28;20465;-38
2020/12/25 09:46:53;;;;;;;8.98;0.88;;;19.50;74.60;;;;;;5075735;28;20076;-38
2020/12/25 09:49:19;;;;;;;11.43;1.10;;;19.50;74.50;;;;;;5083690;28;20064;-38
2020/12/25 09:51:44;;;;;;;6.57;1.00;;;19.60;74.50;;;;;;5085130;28;20045;-40
2020/12/25 09:54:10;;;;;;;10.38;1.30;;;19.60;74.70;;;;;;5079495;28;20056;-38
2020/12/25 09:56:35;;;;;;;7.88;1.10;;;19.70;74.60;;;;;;5085138;28;20047;-38
2020/12/25 09:59:01;;;;;;;11.45;1.20;;;19.70;75.00;;;;;;5052612;28;20416;-38
2020/12/25 10:01:27;;;;;;;13.63;1.00;;;19.70;74.20;;;;;;5058171;28;20105;-38
2020/12/25 10:03:52;;;;;;;8.32;1.48;;;19.70;73.80;;;;;;5067262;28;20049;-38
2020/12/25 10:06:19;;;;;;;12.85;1.10;;;19.80;73.70;;;;;;5105194;28;20090;-38
2020/12/25 10:08:45;;;;;;;12.63;1.73;;;19.80;73.00;;;;;;5081575;28;20415;-39
2020/12/25 10:11:10;;;;;;;17.25;1.50;;;19.80;72.70;;;;;;5067471;28;20044;-38
2020/12/25 10:13:36;;;;;;;10.23;1.35;;;19.90;72.80;;;;;;5050901;28;20131;-37
2020/12/25 10:16:01;;;;;;;14.20;1.25;;;19.80;72.50;;;;;;5078366;28;20692;-36
2020/12/25 10:18:27;;;;;;;11.75;1.48;;;19.90;72.50;;;;;;5074528;28;20093;-37
2020/12/25 10:20:52;;;;;;;10.25;1.67;;;19.90;72.20;;;;;;5083028;28;20048;-36
2020/12/25 10:23:18;;;;;;;10.90;1.85;;;20.00;72.10;;;;;;5084127;28;20052;-37
2020/12/25 10:25:44;;;;;;;12.27;1.70;;;20.00;72.20;;;;;;5084335;28;20078;-40
2020/12/25 10:28:09;;;;;;;12.00;1.30;;;20.00;72.30;;;;;;5067135;28;20036;-37
2020/12/25 10:30:35;;;;;;;13.75;2.08;;;20.00;72.30;;;;;;5062430;28;20059;-37
2020/12/25 10:33:00;;;;;;;6.95;1.60;;;20.00;72.20;;;;;;5064853;28;20036;-37
2020/12/25 10:35:26;;;;;;;22.52;2.30;;;20.00;72.00;;;;;;5061170;28;20139;-36
2020/12/25 10:37:51;;;;;;;9.20;1.83;;;20.00;72.10;;;;;;5054138;28;20041;-37
2020/12/25 10:40:17;;;;;;;10.15;1.40;;;20.00;72.20;;;;;;5059232;28;20438;-45
2020/12/25 10:42:43;;;;;;;17.95;2.00;;;20.00;73.10;;;;;;5062116;28;20041;-57
2020/12/25 10:45:08;;;;;;;13.00;1.67;;;20.00;72.10;;;;;;5064573;28;20052;-58
2020/12/25 10:47:34;;;;;;;9.00;1.63;;;20.00;72.10;;;;;;5060587;28;20071;-56
2020/12/25 10:49:59;;;;;;;10.95;1.50;;;20.00;72.70;;;;;;5052260;28;20090;-56
2020/12/25 10:52:25;;;;;;;9.75;1.98;;;20.00;72.00;;;;;;5069583;28;20044;-55
2020/12/25 10:54:50;;;;;;;9.13;1.30;;;20.10;71.90;;;;;;5064867;28;20496;-59
2020/12/25 10:57:16;;;;;;;18.50;1.77;;;20.10;72.00;;;;;;5068123;28;20045;-55
2020/12/25 10:59:42;;;;;;;8.60;1.20;;;20.10;70.90;;;;;;5063949;28;20045;-51
2020/12/25 11:02:07;;;;;;;18.33;2.38;;;20.10;70.50;;;;;;5068870;28;20045;-52
2020/12/25 11:04:33;;;;;;;12.23;1.90;;;20.00;70.40;;;;;;5071336;28;20083;-47
2020/12/25 11:06:58;;;;;;;15.57;2.28;;;20.00;70.40;;;;;;5068439;28;20199;-59
2020/12/25 11:09:24;;;;;;;15.13;1.50;;;20.00;70.70;;;;;;5062760;28;20051;-58
2020/12/25 11:11:50;;;;;;;11.57;1.40;;;20.10;70.80;;;;;;5055828;28;20033;-63
2020/12/25 11:14:15;;;;;;;10.73;1.52;;;20.20;71.90;;;;;;5069744;28;20048;-49
2020/12/25 11:16:41;;;;;;;6.80;1.45;;;20.20;70.70;;;;;;5071606;28;20052;-45
2020/12/25 11:19:07;;;;;;;8.43;1.60;;;20.10;70.40;;;;;;5045794;28;20087;-46
2020/12/25 11:21:33;;;;;;;4.40;1.77;;;20.20;71.10;;;;;;5041866;28;20041;-58
2020/12/25 11:23:59;;;;;;;9.15;1.70;;;20.20;70.70;;;;;;5053381;28;20135;-62
2020/12/25 11:26:27;;;;;;;12.73;1.65;;;20.20;70.70;;;;;;5067436;28;20044;-58
2020/12/25 11:28:54;;;;;;;18.25;2.20;;;20.20;70.70;;;;;;5069566;28;20515;-58
2020/12/25 11:31:20;;;;;;;12.52;2.10;;;20.10;70.70;;;;;;5061442;28;20059;-57
2020/12/25 11:33:46;;;;;;;10.55;1.35;;;20.20;70.60;;;;;;5059126;28;20044;-58
2020/12/25 11:36:22;;;;;;;7.55;1.63;;;20.20;70.60;;;;;;5062963;28;20065;-57
2020/12/25 11:38:48;;;;;;;10.10;2.05;;;20.20;71.10;;;;;;5064081;28;20107;-57
2020/12/25 11:41:15;;;;;;;7.68;1.50;;;20.20;70.00;;;;;;5050532;28;20127;-58
2020/12/25 11:43:40;;;;;;;7.15;1.70;;;20.20;69.80;;;;;;5056113;28;20045;-58
2020/12/25 11:46:06;;;;;;;11.60;1.85;;;20.20;69.60;;;;;;5053449;28;20056;-56
2020/12/25 11:48:32;;;;;;;8.32;1.70;;;20.10;69.10;;;;;;5053911;28;20044;-58
2020/12/25 11:50:58;;;;;;;10.63;1.50;;;20.10;69.40;;;;;;5056282;28;20039;-57
2020/12/25 11:53:24;;;;;;;4.88;1.10;;;20.10;68.30;;;;;;5058776;28;20059;-57
2020/12/25 11:55:50;;;;;;;5.82;1.60;;;20.10;67.80;;;;;;5059037;28;20076;-58
2020/12/25 11:58:15;;;;;;;4.97;1.73;;;20.10;67.60;;;;;;5053943;28;20084;-58
2020/12/25 12:00:41;;;;;;;7.50;1.85;;;20.00;67.30;;;;;;5061363;28;20055;-58
2020/12/25 12:03:07;;;;;;;5.90;1.63;;;20.00;67.30;;;;;;5065527;28;20041;-58
2020/12/25 12:05:33;;;;;;;5.10;1.63;;;20.00;67.10;;;;;;5052905;28;20128;-54
2020/12/25 12:07:59;;;;;;;5.65;1.95;;;20.00;67.50;;;;;;5063018;28;20400;-42
2020/12/25 12:10:26;;;;;;;7.97;1.83;;;20.00;67.30;;;;;;5064587;28;20217;-39
2020/12/25 12:12:56;;;;;;;15.63;2.75;;;20.00;67.50;;;;;;4711468;28;9999932;-39
2020/12/25 12:15:21;;;;;;;4.75;1.35;;;20.00;67.60;;;;;;5055622;28;20044;-43
2020/12/25 12:17:47;;;;;;;2.63;1.45;;;20.00;67.80;;;;;;5045261;28;20053;-39
2020/12/25 12:20:12;;;;;;;7.20;1.83;;;20.10;67.90;;;;;;5043638;28;20411;-39
2020/12/25 12:22:38;;;;;;;19.42;1.75;;;20.10;68.40;;;;;;5052985;28;20048;-41
2020/12/25 12:25:06;;;;;;;6.70;1.10;;;20.10;68.40;;;;;;5040006;28;20078;-57
2020/12/25 12:27:32;;;;;;;5.65;1.63;;;20.10;68.40;;;;;;5055497;28;20441;-40
2020/12/25 12:29:58;;;;;;;6.10;1.40;;;20.20;68.10;;;;;;5063130;28;20036;-56
2020/12/25 12:32:24;;;;;;;4.72;1.52;;;20.40;75.80;;;;;;5063419;28;20068;-38
2020/12/25 12:34:49;;;;;;;10.50;1.15;;;20.50;67.90;;;;;;5061198;28;20047;-40
2020/12/25 12:37:15;;;;;;;6.53;1.75;;;20.40;68.30;;;;;;5059054;28;20036;-37
2020/12/25 12:39:41;;;;;;;7.72;0.95;;;20.30;69.00;;;;;;5055433;28;20063;-40
2020/12/25 12:42:06;;;;;;;3.70;1.00;;;20.40;68.50;;;;;;5042891;28;20049;-41
2020/12/25 12:44:32;;;;;;;9.40;1.15;;;20.40;68.40;;;;;;5062815;28;20672;-37
2020/12/25 12:46:57;;;;;;;6.05;1.27;;;20.40;68.40;;;;;;5060114;28;20045;-39
2020/12/25 12:49:23;;;;;;;5.82;1.40;;;20.40;68.70;;;;;;5039512;28;20534;-39
2020/12/25 12:51:49;;;;;;;8.70;1.50;;;20.40;68.70;;;;;;5058732;28;20044;-41
2020/12/25 12:54:14;;;;;;;4.38;1.27;;;20.40;68.80;;;;;;5063931;28;20032;-39
2020/12/25 12:56:44;;;;;;;6.00;0.80;;;20.50;69.00;;;;;;5061871;28;20072;-40
2020/12/25 12:59:09;;;;;;;6.82;1.30;;;20.50;69.00;;;;;;5062559;28;20040;-40
2020/12/25 13:01:35;;;;;;;4.72;1.10;;;20.50;69.10;;;;;;5063686;28;20455;-41
2020/12/25 13:04:01;;;;;;;5.90;0.82;;;20.50;68.90;;;;;;5060952;28;20098;-40
2020/12/25 13:06:26;;;;;;;6.82;1.25;;;20.50;69.10;;;;;;5063211;28;20097;-41
2020/12/25 13:08:52;;;;;;;4.40;1.10;;;20.50;69.20;;;;;;4708450;28;10000505;-40
2020/12/25 13:11:25;;;;;;;3.58;1.00;;;20.50;69.20;;;;;;5061782;28;20127;-41
2020/12/25 13:13:51;;;;;;;4.82;0.80;;;20.60;69.10;;;;;;5063072;28;20190;-40
2020/12/25 13:16:25;;;;;;;3.75;0.85;;;20.60;69.10;;;;;;5057267;28;20133;-42
2020/12/25 13:18:51;;;;;;;3.83;0.90;;;20.60;69.10;;;;;;5048782;28;20095;-40
2020/12/25 13:21:22;;;;;;;2.55;0.93;;;20.50;69.00;;;;;;5055334;28;20044;-41
2020/12/25 13:23:48;;;;;;;2.83;0.90;;;20.60;69.10;;;;;;5063469;28;20055;-46
2020/12/25 13:26:14;;;;;;;5.00;1.17;;;20.50;69.20;;;;;;5063686;28;20504;-38
2020/12/25 13:28:39;;;;;;;4.47;0.80;;;20.60;69.70;;;;;;5067988;28;20094;-64
2020/12/25 13:31:05;;;;;;;2.47;0.80;;;20.70;69.30;;;;;;5066845;28;20052;-52
2020/12/25 13:33:33;;;;;;;6.25;1.10;;;20.70;69.10;;;;;;5065678;28;20132;-51
2020/12/25 13:35:59;;;;;;;4.70;0.75;;;20.90;69.00;;;;;;5061992;28;20051;-44
2020/12/25 13:38:25;;;;;;;1.17;0.70;;;21.00;68.60;;;;;;5064130;28;20037;-50
2020/12/25 13:40:50;;;;;;;2.78;0.70;;;21.10;68.50;;;;;;5068127;28;20043;-43
2020/12/25 13:43:16;;;;;;;1.83;0.70;;;21.20;67.90;;;;;;5063403;28;20045;-46
2020/12/25 13:45:43;;;;;;;3.22;1.00;;;21.30;67.50;;;;;;5064288;28;20052;-44
2020/12/25 13:48:08;;;;;;;4.90;0.93;;;21.40;67.20;;;;;;5066290;28;20555;-43
2020/12/25 13:50:34;;;;;;;2.28;0.73;;;21.50;66.50;;;;;;5063072;28;20140;-54
2020/12/25 13:53:00;;;;;;;4.15;1.17;;;21.60;65.90;;;;;;5067665;28;20115;-47
2020/12/25 13:55:25;;;;;;;2.35;0.75;;;21.50;65.80;;;;;;5064873;28;20507;-52
2020/12/25 13:57:51;;;;;;;0.70;0.47;;;21.40;65.80;;;;;;5064054;28;20087;-54
2020/12/25 14:00:17;;;;;;;1.67;0.80;;;21.30;66.30;;;;;;5056353;28;20097;-47
2020/12/25 14:02:42;;;;;;;1.92;0.80;;;21.20;66.40;;;;;;5067360;28;20053;-49
2020/12/25 14:05:08;;;;;;;10.68;0.80;;;21.20;66.90;;;;;;5069960;28;20178;-49
2020/12/25 14:07:33;;;;;;;3.45;0.80;;;21.50;66.60;;;;;;5065786;28;20051;-49
2020/12/25 14:09:59;;;;;;;2.75;1.20;;;21.60;65.90;;;;;;5052885;28;20052;-53
2020/12/25 14:12:25;;;;;;;1.90;0.50;;;21.70;65.50;;;;;;5018221;28;20038;-49
2020/12/25 14:14:50;;;;;;;6.20;1.10;;;21.90;66.50;;;;;;5064482;28;20045;-61
2020/12/25 14:17:16;;;;;;;3.40;0.90;;;21.80;64.80;;;;;;5049982;28;20053;-56
2020/12/25 14:19:41;;;;;;;8.82;1.00;;;21.60;65.80;;;;;;5056285;28;20068;-46
2020/12/25 14:22:07;;;;;;;3.13;0.77;;;21.70;65.10;;;;;;5069113;28;20040;-46
2020/12/25 14:24:32;;;;;;;4.70;0.68;;;21.70;65.40;;;;;;5064827;28;20505;-46
2020/12/25 14:26:58;;;;;;;7.20;0.80;;;21.80;65.10;;;;;;5068632;28;20044;-51
2020/12/25 14:29:24;;;;;;;10.27;0.98;;;21.70;65.00;;;;;;5067039;28;20044;-53
2020/12/25 14:31:49;;;;;;;3.28;0.52;;;21.70;65.00;;;;;;5069063;28;20472;-49
2020/12/25 14:34:15;;;;;;;7.07;1.10;;;21.60;65.30;;;;;;5067662;28;20048;-54
2020/12/25 14:36:40;;;;;;;1.85;0.65;;;21.50;65.60;;;;;;5059824;28;20094;-52
2020/12/25 14:39:08;;;;;;;5.88;1.23;;;21.40;65.90;;;;;;5066782;28;20724;-51
2020/12/25 14:41:33;;;;;;;7.40;0.77;;;21.40;66.10;;;;;;5067720;28;20032;-54
2020/12/25 14:44:00;;;;;;;4.28;0.77;;;21.40;66.70;;;;;;5066487;28;20035;-53
2020/12/25 14:46:26;;;;;;;3.97;1.00;;;21.30;67.60;;;;;;5066895;28;20048;-53
2020/12/25 14:48:51;;;;;;;4.68;1.13;;;21.30;67.20;;;;;;5064170;28;20045;-52
2020/12/25 14:51:20;;;;;;;6.05;0.88;;;21.20;67.70;;;;;;5058710;28;20933;-53
2020/12/25 14:53:45;;;;;;;12.40;1.08;;;21.20;68.90;;;;;;5016583;28;20050;-53
2020/12/25 14:56:20;;;;;;;5.78;1.17;;;21.20;68.60;;;;;;4698711;28;10000896;-52
2020/12/25 14:58:46;;;;;;;8.10;0.90;;;21.20;68.20;;;;;;4696824;28;10000569;-53
2020/12/25 15:01:18;;;;;;;4.65;0.88;;;21.20;68.30;;;;;;5043273;28;20529;-50
2020/12/25 15:03:44;;;;;;;6.90;0.90;;;21.10;68.40;;;;;;5049710;28;20500;-48
2020/12/25 15:06:10;;;;;;;7.90;1.15;;;21.10;68.70;;;;;;5047983;28;20048;-50
2020/12/25 15:08:35;;;;;;;3.03;0.85;;;21.00;69.00;;;;;;5044626;28;20511;-51
2020/12/25 15:11:01;;;;;;;3.10;0.55;;;21.00;69.30;;;;;;5042562;28;20037;-51
2020/12/25 15:13:26;;;;;;;4.40;1.10;;;21.00;70.20;;;;;;5054606;28;20052;-48
2020/12/25 15:15:52;;;;;;;9.23;0.85;;;21.00;69.40;;;;;;5036232;28;20689;-53
2020/12/25 15:18:17;;;;;;;7.13;1.15;;;20.90;69.20;;;;;;5049236;28;20055;-48
2020/12/25 15:20:43;;;;;;;4.47;0.88;;;21.10;69.00;;;;;;5052495;28;20467;-57
2020/12/25 15:23:09;;;;;;;2.85;0.70;;;21.10;69.60;;;;;;5042343;28;20144;-45
2020/12/25 15:25:34;;;;;;;9.93;1.10;;;21.10;68.50;;;;;;5045781;28;20524;-43
2020/12/25 15:28:00;;;;;;;6.00;0.98;;;21.10;68.50;;;;;;5062247;28;20049;-45
2020/12/25 15:30:25;;;;;;;5.22;1.05;;;21.20;68.50;;;;;;5058180;28;20132;-51
2020/12/25 15:32:51;;;;;;;2.08;0.50;;;21.10;68.40;;;;;;5052084;28;20107;-46
2020/12/25 15:35:18;;;;;;;2.08;0.77;;;21.20;68.10;;;;;;5053267;28;20624;-44
2020/12/25 15:37:44;;;;;;;3.90;0.52;;;21.20;68.00;;;;;;5064578;28;20143;-52
2020/12/25 15:40:09;;;;;;;4.88;0.70;;;21.20;68.50;;;;;;5051015;28;20125;-44
2020/12/25 15:42:35;;;;;;;4.95;0.70;;;21.20;68.10;;;;;;5041916;28;20507;-41
2020/12/25 15:45:01;;;;;;;5.35;0.70;;;21.20;67.20;;;;;;5058792;28;20045;-45
2020/12/25 15:47:26;;;;;;;8.38;1.23;;;21.20;67.10;;;;;;5058927;28;20657;-44
2020/12/25 15:49:52;;;;;;;1.98;0.80;;;21.20;66.90;;;;;;5041870;28;20041;-47
2020/12/25 15:52:17;;;;;;;4.60;0.60;;;21.00;67.10;;;;;;5050971;28;20048;-46
2020/12/25 15:54:43;;;;;;;4.47;0.60;;;21.00;67.40;;;;;;5044796;28;20048;-46
2020/12/25 15:57:08;;;;;;;2.78;0.85;;;21.00;67.60;;;;;;5054923;28;20068;-43
2020/12/25 15:59:34;;;;;;;3.78;0.90;;;21.10;67.30;;;;;;5057277;28;20041;-52
2020/12/25 16:01:59;;;;;;;5.00;1.00;;;21.10;67.10;;;;;;5046985;28;20124;-52
2020/12/25 16:04:25;;;;;;;4.13;1.27;;;21.20;66.80;;;;;;5047713;28;20052;-64
2020/12/25 16:06:51;;;;;;;4.15;1.20;;;21.30;66.80;;;;;;5047201;28;20179;-68
2020/12/25 16:09:16;;;;;;;4.85;1.08;;;21.40;66.40;;;;;;5063123;28;20056;-56
2020/12/25 16:11:42;;;;;;;4.13;1.20;;;21.40;66.10;;;;;;5047205;28;20029;-54
2020/12/25 16:14:08;;;;;;;5.43;1.13;;;21.30;66.30;;;;;;5053540;28;20090;-50
2020/12/25 16:16:36;;;;;;;2.67;0.80;;;21.20;66.40;;;;;;5038726;28;23744;-57
2020/12/25 16:19:02;;;;;;;2.30;1.02;;;21.20;66.50;;;;;;5048874;28;20105;-57
2020/12/25 16:21:28;;;;;;;2.58;1.20;;;21.20;66.50;;;;;;5041215;28;20049;-51
2020/12/25 16:23:54;;;;;;;4.78;0.85;;;21.20;66.50;;;;;;5045014;28;20047;-55
2020/12/25 16:26:19;;;;;;;3.40;1.20;;;21.20;66.70;;;;;;5056577;28;20068;-51
2020/12/25 16:28:45;;;;;;;2.03;1.00;;;21.10;66.80;;;;;;5035741;28;20037;-50
2020/12/25 16:31:11;;;;;;;6.00;1.02;;;21.10;66.90;;;;;;5042959;28;20055;-51
2020/12/25 16:33:36;;;;;;;4.68;2.88;;;21.10;66.90;;;;;;5037665;28;20072;-53
2020/12/25 16:36:02;;;;;;;7.85;2.53;;;21.10;67.00;;;;;;5045828;28;20033;-51
2020/12/25 16:38:29;;;;;;;4.35;1.65;;;21.00;67.00;;;;;;5043824;28;20052;-57
2020/12/25 16:40:55;;;;;;;4.43;2.00;;;21.00;67.00;;;;;;5051510;28;20044;-48
2020/12/25 16:43:21;;;;;;;6.78;2.58;;;21.00;67.40;;;;;;5031096;28;20051;-54
2020/12/25 16:45:46;;;;;;;2.97;2.05;;;21.00;67.40;;;;;;5046747;28;20049;-55
2020/12/25 16:48:12;;;;;;;4.63;2.60;;;21.00;67.40;;;;;;5027170;28;20056;-54
2020/12/25 16:50:37;;;;;;;4.88;1.95;;;20.90;67.60;;;;;;5053685;28;20139;-47
2020/12/25 16:53:08;;;;;;;5.05;2.08;;;20.90;67.60;;;;;;4883732;28;10001143;-47
2020/12/25 16:55:33;;;;;;;4.72;2.13;;;20.90;67.60;;;;;;5052239;28;20387;-46
2020/12/25 16:57:59;;;;;;;6.30;1.83;;;20.90;67.60;;;;;;5063413;28;20051;-53
2020/12/25 17:00:25;;;;;;;7.75;1.98;;;20.90;67.50;;;;;;5051389;28;20046;-49
2020/12/25 17:02:50;;;;;;;4.53;2.20;;;20.90;67.30;;;;;;5043040;28;20045;-50
2020/12/25 17:05:16;;;;;;;4.00;2.42;;;20.90;67.40;;;;;;5061663;28;20086;-54
2020/12/25 17:07:42;;;;;;;6.13;1.98;;;20.90;67.60;;;;;;5053092;28;20045;-56
2020/12/25 17:10:07;;;;;;;6.18;1.90;;;20.80;67.50;;;;;;5045643;28;20159;-47
2020/12/25 17:12:34;;;;;;;7.18;1.65;;;20.80;67.50;;;;;;5033678;28;20053;-50
2020/12/25 17:15:00;;;;;;;6.18;2.00;;;20.80;67.50;;;;;;5050667;28;20048;-51
2020/12/25 17:17:26;;;;;;;6.45;1.98;;;20.80;67.30;;;;;;5045101;28;20116;-52
2020/12/25 17:19:52;;;;;;;3.97;1.90;;;20.80;67.20;;;;;;5048354;28;20140;-48
2020/12/25 17:22:17;;;;;;;3.88;1.83;;;20.80;67.20;;;;;;5043275;28;20036;-51
2020/12/25 17:24:43;;;;;;;1.92;1.35;;;20.80;67.10;;;;;;5045333;28;20476;-45
2020/12/25 17:27:08;;;;;;;3.38;1.67;;;20.80;67.10;;;;;;5044646;28;20025;-45
2020/12/25 17:29:34;;;;;;;4.00;1.55;;;20.70;67.10;;;;;;5053591;28;20060;-49
2020/12/25 17:32:00;;;;;;;3.53;1.70;;;20.70;67.80;;;;;;5053368;28;20041;-53
2020/12/25 17:34:25;;;;;;;5.82;1.70;;;20.70;67.00;;;;;;5043956;28;20056;-49
2020/12/25 17:36:51;;;;;;;1.65;1.45;;;20.70;67.00;;;;;;5047185;28;20040;-50
2020/12/25 17:39:17;;;;;;;2.75;1.70;;;20.70;66.90;;;;;;5048437;28;20500;-48
2020/12/25 17:41:42;;;;;;;5.93;1.90;;;20.70;66.90;;;;;;5050721;28;20036;-52
2020/12/25 17:44:08;;;;;;;8.80;1.52;;;20.70;66.90;;;;;;5049109;28;20060;-52
2020/12/25 17:46:33;;;;;;;4.00;1.90;;;20.70;67.00;;;;;;5053003;28;20495;-46
2020/12/25 17:48:59;;;;;;;2.67;1.70;;;20.70;67.00;;;;;;5050314;28;20056;-50
2020/12/25 17:51:24;;;;;;;8.50;1.58;;;20.70;67.80;;;;;;5051612;28;20086;-51
2020/12/25 17:53:50;;;;;;;1.83;1.30;;;20.70;67.00;;;;;;5047379;28;20109;-45
2020/12/25 17:56:24;;;;;;;6.97;1.60;;;20.60;66.90;;;;;;5050254;28;20392;-43
2020/12/25 17:58:49;;;;;;;4.75;1.42;;;20.60;67.00;;;;;;5048386;28;20037;-46
2020/12/25 18:01:15;;;;;;;2.45;1.38;;;20.70;67.00;;;;;;5040364;28;20033;-44
2020/12/25 18:03:42;;;;;;;2.13;1.20;;;20.70;66.90;;;;;;5043126;28;20041;-45
2020/12/25 18:06:08;;;;;;;4.22;1.52;;;20.70;66.90;;;;;;5051251;28;20028;-45
2020/12/25 18:08:34;;;;;;;5.53;1.17;;;20.70;66.90;;;;;;5037145;28;20441;-48
2020/12/25 18:11:00;;;;;;;2.45;1.23;;;20.60;66.90;;;;;;5047939;28;20044;-45
2020/12/25 18:13:28;;;;;;;2.55;1.30;;;20.60;66.80;;;;;;5045974;28;20032;-44
2020/12/25 18:15:57;;;;;;;1.15;1.00;;;20.70;66.80;;;;;;5047465;28;20059;-46
2020/12/25 18:18:24;;;;;;;5.80;1.42;;;20.60;66.80;;;;;;5050101;28;20029;-43
2020/12/25 18:20:49;;;;;;;3.00;1.80;;;20.70;66.70;;;;;;5046793;28;20120;-42
2020/12/25 18:23:15;;;;;;;4.20;1.00;;;20.80;66.50;;;;;;5048882;28;20025;-41
2020/12/25 18:25:41;;;;;;;3.70;1.48;;;20.70;66.40;;;;;;5049114;28;20032;-44
2020/12/25 18:28:07;;;;;;;2.25;1.20;;;20.60;66.70;;;;;;5045818;28;20264;-43
2020/12/25 18:30:32;;;;;;;5.15;1.20;;;20.50;66.90;;;;;;5044142;28;20401;-44
2020/12/25 18:32:58;;;;;;;1.35;1.25;;;20.50;67.10;;;;;;5049694;28;20586;-42
2020/12/25 18:35:24;;;;;;;3.63;1.13;;;20.50;67.20;;;;;;5047253;28;20024;-42
2020/12/25 18:37:50;;;;;;;1.30;1.20;;;20.50;67.40;;;;;;5048339;28;20389;-41
2020/12/25 18:40:16;;;;;;;2.45;1.08;;;20.60;67.80;;;;;;5042343;28;20055;-43
2020/12/25 18:42:41;;;;;;;1.95;1.33;;;20.70;67.30;;;;;;5042102;28;20076;-43
2020/12/25 18:45:07;;;;;;;1.98;1.38;;;20.70;67.40;;;;;;5037469;28;20041;-42
2020/12/25 18:47:36;;;;;;;3.90;1.30;;;20.70;67.50;;;;;;5045633;28;20036;-42
2020/12/25 18:50:03;;;;;;;1.20;1.10;;;20.70;67.00;;;;;;5040679;28;20025;-42
2020/12/25 18:52:32;;;;;;;2.00;1.23;;;20.80;67.10;;;;;;5042367;28;20033;-44
2020/12/25 18:54:59;;;;;;;1.17;1.08;;;20.80;67.00;;;;;;5046272;28;20044;-43
2020/12/25 18:57:25;;;;;;;1.60;1.23;;;20.90;66.50;;;;;;5041837;28;20037;-42
2020/12/25 18:59:50;;;;;;;2.05;1.08;;;20.90;66.60;;;;;;5042169;28;20107;-45
2020/12/25 19:02:16;;;;;;;3.63;1.10;;;21.00;66.60;;;;;;5039803;28;20045;-44
2020/12/25 19:04:42;;;;;;;1.13;1.02;;;20.90;67.10;;;;;;5057760;28;20812;-43
2020/12/25 19:07:07;;;;;;;4.35;1.02;;;21.00;66.80;;;;;;5058580;28;20416;-42
2020/12/25 19:09:33;;;;;;;4.53;1.17;;;21.00;66.80;;;;;;5043291;28;20040;-42
2020/12/25 19:12:01;;;;;;;2.78;1.10;;;21.00;66.90;;;;;;5044604;28;20041;-47
2020/12/25 19:14:29;;;;;;;1.35;1.23;;;21.00;67.00;;;;;;5044079;28;20779;-42
2020/12/25 19:16:54;;;;;;;4.75;1.13;;;21.10;67.00;;;;;;5053777;28;20127;-41
2020/12/25 19:19:20;;;;;;;4.43;1.27;;;21.10;67.40;;;;;;5050050;28;20127;-44
2020/12/25 19:21:46;;;;;;;1.40;1.05;;;21.10;67.30;;;;;;4698960;28;10000237;-42
2020/12/25 19:24:11;;;;;;;2.25;1.13;;;21.10;67.10;;;;;;5057496;28;20097;-41
2020/12/25 19:26:37;;;;;;;3.15;0.90;;;21.10;67.40;;;;;;5069017;28;20052;-43
2020/12/25 19:29:02;;;;;;;6.45;1.35;;;21.10;67.30;;;;;;5055670;28;20043;-42
2020/12/25 19:31:28;;;;;;;2.00;0.85;;;21.10;67.30;;;;;;5056385;28;20055;-42
2020/12/25 19:33:54;;;;;;;5.82;1.40;;;21.10;67.40;;;;;;5067446;28;20045;-40
2020/12/25 19:36:20;;;;;;;11.75;1.40;;;21.10;67.60;;;;;;5049994;28;20052;-44
2020/12/25 19:38:46;;;;;;;5.43;1.40;;;21.00;67.70;;;;;;5028425;28;20041;-40
2020/12/25 19:41:13;;;;;;;6.95;1.30;;;21.10;68.00;;;;;;5050777;28;20427;-42
2020/12/25 19:43:38;;;;;;;7.30;1.67;;;21.10;67.70;;;;;;5061765;28;20037;-42
2020/12/25 19:46:04;;;;;;;2.92;1.30;;;21.10;68.00;;;;;;5046748;28;20057;-40
2020/12/25 19:48:29;;;;;;;15.23;1.88;;;21.10;68.40;;;;;;5055884;28;20040;-40
2020/12/25 19:50:55;;;;;;;10.43;2.03;;;21.10;68.70;;;;;;5050377;28;20042;-40
2020/12/25 19:53:21;;;;;;;4.28;1.85;;;21.10;68.10;;;;;;5050010;28;20504;-40
2020/12/25 19:55:47;;;;;;;9.07;1.83;;;21.10;68.50;;;;;;5044970;28;20456;-38
2020/12/25 19:58:12;;;;;;;8.48;2.08;;;21.10;68.70;;;;;;5042213;28;20109;-40
2020/12/25 20:00:38;;;;;;;7.80;2.33;;;21.10;68.60;;;;;;5044030;28;20147;-40
2020/12/25 20:03:06;;;;;;;12.07;3.17;;;21.10;68.70;;;;;;5041885;28;20044;-40
2020/12/25 20:05:32;;;;;;;11.27;2.42;;;21.10;68.60;;;;;;5036330;28;20044;-41
2020/12/25 20:07:58;;;;;;;13.05;2.10;;;21.10;68.70;;;;;;5051615;28;20113;-40
2020/12/25 20:10:23;;;;;;;8.73;2.45;;;21.10;68.80;;;;;;5049515;28;20045;-39
2020/12/25 20:12:49;;;;;;;12.57;2.67;;;21.10;68.80;;;;;;5045588;28;20525;-44
2020/12/25 20:15:14;;;;;;;8.73;1.90;;;21.00;68.70;;;;;;5047996;28;20045;-45
2020/12/25 20:17:40;;;;;;;9.07;2.35;;;20.90;68.80;;;;;;5031408;28;20068;-43
2020/12/25 20:20:06;;;;;;;10.15;2.42;;;20.90;68.80;;;;;;5040322;28;20094;-41
2020/12/25 20:22:32;;;;;;;14.07;2.70;;;20.90;68.90;;;;;;5045372;28;20078;-40
2020/12/25 20:24:57;;;;;;;11.00;2.40;;;20.90;68.80;;;;;;5043659;28;20044;-43
2020/12/25 20:27:24;;;;;;;6.57;2.55;;;20.90;68.50;;;;;;5043415;28;20043;-41
2020/12/25 20:29:50;;;;;;;3.85;2.03;;;20.90;68.40;;;;;;5043038;28;20017;-42
2020/12/25 20:32:20;;;;;;;13.10;2.60;;;20.90;68.60;;;;;;5043473;28;20402;-43
2020/12/25 20:34:46;;;;;;;10.45;2.15;;;21.00;68.40;;;;;;5042867;28;20116;-42
2020/12/25 20:37:12;;;;;;;6.50;2.85;;;21.00;68.20;;;;;;5040343;28;20045;-41
2020/12/25 20:39:38;;;;;;;6.57;1.95;;;21.00;68.20;;;;;;5041296;28;20037;-41
2020/12/25 20:42:05;;;;;;;9.05;2.20;;;21.00;68.20;;;;;;5042475;28;20048;-43
2020/12/25 20:44:31;;;;;;;7.15;2.42;;;20.90;68.30;;;;;;5039508;28;20025;-42
2020/12/25 20:46:59;;;;;;;3.05;2.10;;;21.00;68.80;;;;;;5042954;28;20121;-42
2020/12/25 20:49:25;;;;;;;12.57;2.45;;;21.10;67.70;;;;;;5042205;28;20025;-39
2020/12/25 20:51:52;;;;;;;4.78;2.20;;;21.00;67.70;;;;;;5044763;28;20043;-39
2020/12/25 20:54:19;;;;;;;4.90;1.83;;;21.10;67.90;;;;;;5042185;28;20033;-41
2020/12/25 20:56:45;;;;;;;7.43;2.28;;;21.20;67.30;;;;;;5042898;28;20170;-42
2020/12/25 20:59:16;;;;;;;4.25;2.30;;;21.20;67.20;;;;;;5042027;28;20025;-41
2020/12/25 21:01:44;;;;;;;6.00;2.25;;;21.20;67.30;;;;;;5041880;28;20044;-41
2020/12/25 21:04:10;;;;;;;17.80;2.13;;;21.10;67.10;;;;;;5042849;28;20044;-41
2020/12/25 21:06:35;;;;;;;4.53;1.85;;;21.10;67.60;;;;;;5044636;28;20040;-42